Time;durP1;ratioP1;P1;durP2;ratioP2;P2;SDS_P1;SDS_P2;PMS_P1;PMS_P2;Temp;Humidity;BMP_temperature;BMP_pressure;BME280_temperature;BME280_humidity;BME280_pressure;Samples;Min_cycle;Max_cycle;Signal;HPM_P1;HPM_P2
2021/10/03 00:09:11;;;;;;;32.90;19.67;;;;;;;11.72;100.00;100538.56;714299;1203;114481;-77
2021/10/03 00:24:14;;;;;;;31.03;19.35;;;;;;;11.76;100.00;100526.80;714190;1205;114811;-78
2021/10/03 00:39:16;;;;;;;43.80;20.47;;;;;;;11.70;100.00;100529.16;713974;1182;115439;-76
2021/10/03 00:54:18;;;;;;;35.90;20.00;;;;;;;11.55;100.00;100511.16;714091;1205;115822;-76
2021/10/03 01:09:21;;;;;;;33.65;18.68;;;;;;;11.47;100.00;100511.01;713967;1202;115344;-79
2021/10/03 01:24:23;;;;;;;27.63;17.90;;;;;;;11.37;100.00;100510.16;714225;1200;115453;-77
2021/10/03 01:39:27;;;;;;;29.00;17.93;;;;;;;11.32;100.00;100510.55;714149;1200;117233;-77
2021/10/03 01:54:33;;;;;;;31.98;18.70;;;;;;;11.25;100.00;100493.67;714053;1200;114634;-78
2021/10/03 02:09:35;;;;;;;28.45;17.83;;;;;;;11.19;100.00;100515.20;714354;1189;115185;-77
2021/10/03 02:24:37;;;;;;;32.70;17.28;;;;;;;11.27;100.00;100496.98;714034;1200;114567;-76
2021/10/03 02:39:39;;;;;;;25.97;15.67;;;;;;;11.27;100.00;100507.48;714042;1202;114679;-79
2021/10/03 02:54:42;;;;;;;28.13;15.68;;;;;;;11.26;100.00;100492.72;714045;1202;115494;-76
2021/10/03 03:09:44;;;;;;;24.80;15.53;;;;;;;11.28;100.00;100490.77;714018;1200;114253;-77
2021/10/03 03:24:47;;;;;;;23.05;14.73;;;;;;;11.36;100.00;100490.92;714205;1205;114178;-76
2021/10/03 03:39:49;;;;;;;25.83;15.83;;;;;;;11.40;100.00;100481.83;714034;1177;116480;-77
2021/10/03 03:54:51;;;;;;;28.88;16.58;;;;;;;11.42;100.00;100474.63;714423;1200;115071;-76
2021/10/03 04:09:53;;;;;;;28.05;15.55;;;;;;;11.47;100.00;100497.88;714473;1178;114727;-78
2021/10/03 04:24:55;;;;;;;24.47;13.60;;;;;;;11.52;100.00;100498.30;714567;1205;114451;-77
2021/10/03 04:39:57;;;;;;;20.18;13.18;;;;;;;11.67;100.00;100496.09;714173;1177;114451;-82
2021/10/03 04:55:00;;;;;;;21.33;13.00;;;;;;;12.03;100.00;100493.77;714328;1180;115649;-81
2021/10/03 05:10:03;;;;;;;21.65;13.93;;;;;;;12.42;100.00;100509.50;714976;1205;114283;-80
2021/10/03 05:25:06;;;;;;;22.97;14.70;;;;;;;12.68;100.00;100506.23;714420;1184;114363;-78
2021/10/03 05:40:08;;;;;;;23.70;13.48;;;;;;;12.75;100.00;100496.80;714382;1201;115187;-86
2021/10/03 05:55:11;;;;;;;26.45;15.98;;;;;;;12.99;100.00;100514.70;714758;1204;115489;-79
2021/10/03 06:10:13;;;;;;;39.88;30.40;;;;;;;13.22;100.00;100516.13;714782;1202;115083;-79
2021/10/03 06:25:15;;;;;;;19.10;12.75;;;;;;;13.78;100.00;100523.02;714623;1205;114437;-83
2021/10/03 06:40:18;;;;;;;85.83;48.53;;;;;;;13.99;100.00;100532.45;715521;1202;115747;-78
2021/10/03 06:55:21;;;;;;;21.38;13.50;;;;;;;14.79;100.00;100547.39;714890;1205;114736;-75
2021/10/03 07:10:23;;;;;;;30.05;13.78;;;;;;;14.89;99.35;100536.73;714335;1203;115271;-76
2021/10/03 07:25:25;;;;;;;19.37;12.07;;;;;;;15.60;96.68;100527.56;715835;1202;114223;-73
2021/10/03 07:40:27;;;;;;;14.67;9.80;;;;;;;16.06;90.88;100528.95;714952;1202;115044;-73
2021/10/03 07:55:29;;;;;;;16.50;10.70;;;;;;;17.23;86.85;100541.82;714550;1203;115602;-73
2021/10/03 08:10:32;;;;;;;14.40;10.13;;;;;;;18.34;81.87;100523.83;714660;1203;114648;-74
2021/10/03 08:25:35;;;;;;;12.65;8.35;;;;;;;19.09;75.88;100531.86;714589;1205;115340;-75
2021/10/03 08:40:37;;;;;;;19.85;9.50;;;;;;;19.72;73.07;100521.52;714553;1202;115705;-76
2021/10/03 08:55:41;;;;;;;18.13;8.77;;;;;;;20.26;70.98;100524.69;714566;1202;114533;-76
2021/10/03 09:11:03;;;;;;;13.00;8.50;;;;;;;20.79;70.10;100524.23;715054;1206;114935;-77
2021/10/03 09:26:12;;;;;;;14.83;8.67;;;;;;;21.21;66.05;100518.90;714522;1205;115768;-75
2021/10/03 09:41:16;;;;;;;12.80;9.57;;;;;;;21.22;65.67;100502.69;714463;1200;114084;-76
2021/10/03 09:56:19;;;;;;;14.85;9.85;;;;;;;21.78;66.55;100487.43;714496;1202;114144;-77
2021/10/03 10:11:53;;;;;;;14.83;10.67;;;;;;;22.53;65.92;100471.15;714488;1205;115125;-76
2021/10/03 10:26:55;;;;;;;17.80;11.90;;;;;;;23.28;64.75;100451.12;714453;1202;115191;-73
2021/10/03 10:42:01;;;;;;;12.15;9.63;;;;;;;23.09;62.44;100440.29;714455;1177;114692;-74
2021/10/03 10:57:10;;;;;;;12.73;8.60;;;;;;;23.70;62.83;100446.09;714208;1201;114653;-74
2021/10/03 11:12:12;;;;;;;11.05;7.88;;;;;;;23.09;60.97;100434.09;714874;1202;114426;-76
2021/10/03 11:27:30;;;;;;;12.15;8.55;;;;;;;22.62;59.94;100430.81;716542;1180;114573;-76
2021/10/03 11:42:53;;;;;;;15.33;9.77;;;;;;;23.01;60.86;100416.44;714604;1177;114577;-75
2021/10/03 11:57:56;;;;;;;13.45;9.33;;;;;;;23.04;60.53;100421.38;714466;1190;114504;-74
2021/10/03 12:12:58;;;;;;;17.33;9.67;;;;;;;23.72;59.46;100401.14;714526;1205;114041;-75
2021/10/03 12:28:00;;;;;;;13.00;9.53;;;;;;;23.99;58.58;100382.16;714828;1200;114366;-74
2021/10/03 12:43:03;;;;;;;13.20;9.13;;;;;;;24.20;58.60;100358.67;715148;1200;115547;-76
2021/10/03 12:58:06;;;;;;;13.53;9.70;;;;;;;24.06;57.89;100358.02;714828;1177;114758;-77
2021/10/03 13:13:08;;;;;;;12.67;8.27;;;;;;;24.25;57.13;100337.38;715003;1203;114905;-76
2021/10/03 13:28:11;;;;;;;15.23;10.53;;;;;;;29.24;53.75;100331.39;714399;1203;115392;-76
2021/10/03 13:43:13;;;;;;;17.83;9.90;;;;;;;32.47;47.83;100328.53;714553;1202;114210;-76
2021/10/03 13:58:15;;;;;;;21.77;13.43;;;;;;;32.03;46.72;100306.48;714512;1202;114104;-74
2021/10/03 14:13:18;;;;;;;13.57;10.00;;;;;;;31.00;47.97;100330.23;714875;1201;115566;-77
2021/10/03 14:28:20;;;;;;;15.43;8.10;;;;;;;31.30;46.80;100315.88;714599;1200;114254;-73
2021/10/03 14:43:21;;;;;;;11.90;8.25;;;;;;;28.50;49.47;100314.78;714820;1200;114313;-75
2021/10/03 14:58:24;;;;;;;44.40;30.23;;;;;;;25.09;53.67;100324.08;714845;1200;113885;-76
2021/10/03 15:13:27;;;;;;;22.58;18.95;;;;;;;22.10;59.00;100336.22;714135;1200;114176;-77
2021/10/03 15:28:29;;;;;;;16.88;11.08;;;;;;;20.70;63.08;100347.66;714063;1205;114399;-73
2021/10/03 15:43:31;;;;;;;15.93;11.63;;;;;;;20.38;65.96;100363.30;713046;1178;115839;-74
2021/10/03 15:58:33;;;;;;;23.38;15.43;;;;;;;19.69;67.20;100356.92;713993;1177;114142;-75
2021/10/03 16:13:36;;;;;;;26.98;15.08;;;;;;;18.22;71.23;100376.60;714052;1202;114902;-74
2021/10/03 16:28:39;;;;;;;188.50;104.45;;;;;;;17.71;74.80;100388.69;713389;1206;114525;-74
2021/10/03 16:43:41;;;;;;;24.38;16.10;;;;;;;17.22;77.60;100378.46;714139;1177;115057;-74
2021/10/03 16:58:44;;;;;;;31.75;22.18;;;;;;;16.81;80.29;100384.80;713974;1202;114481;-73
2021/10/03 17:13:46;;;;;;;25.07;15.60;;;;;;;16.50;83.61;100390.91;714125;1178;113860;-73
2021/10/03 17:28:48;;;;;;;18.13;12.28;;;;;;;16.28;85.53;100384.53;714113;1205;114633;-75
2021/10/03 17:43:52;;;;;;;21.70;14.00;;;;;;;16.21;86.81;100383.58;714233;1202;115209;-73
2021/10/03 17:58:55;;;;;;;25.80;14.00;;;;;;;15.95;89.48;100397.83;714121;1205;114834;-75
2021/10/03 18:13:57;;;;;;;30.45;18.95;;;;;;;15.82;91.82;100384.30;714104;1201;114098;-75
2021/10/03 18:28:59;;;;;;;33.40;19.78;;;;;;;15.54;94.53;100397.83;714010;1202;113958;-72
2021/10/03 18:44:01;;;;;;;37.90;23.05;;;;;;;15.45;95.51;100392.55;714378;1200;115511;-71
2021/10/03 18:59:04;;;;;;;20.73;13.10;;;;;;;15.37;97.90;100397.81;714374;1200;114623;-72
2021/10/03 19:14:06;;;;;;;24.90;14.43;;;;;;;15.28;98.32;100404.08;714635;1179;114427;-71
2021/10/03 19:29:08;;;;;;;15.50;10.70;;;;;;;15.23;99.42;100406.38;714829;1200;114682;-71
2021/10/03 19:44:11;;;;;;;17.93;11.83;;;;;;;15.13;99.05;100412.64;715252;1177;114681;-71
2021/10/03 19:59:14;;;;;;;16.83;11.00;;;;;;;15.02;100.00;100407.67;714626;1201;115597;-72
2021/10/03 20:14:16;;;;;;;13.75;10.18;;;;;;;14.95;100.00;100404.85;714306;1179;114219;-71
2021/10/03 20:29:18;;;;;;;15.77;10.87;;;;;;;14.91;100.00;100415.88;714012;1178;115389;-74
2021/10/03 20:44:20;;;;;;;18.20;11.38;;;;;;;14.84;100.00;100407.78;714038;1202;115913;-71
2021/10/03 20:59:22;;;;;;;15.23;10.63;;;;;;;14.80;100.00;100391.42;713904;1205;115558;-72
2021/10/03 21:14:25;;;;;;;14.20;9.78;;;;;;;14.77;100.00;100381.19;713820;1177;114319;-72
2021/10/03 21:29:27;;;;;;;16.23;10.13;;;;;;;14.67;100.00;100384.95;713653;1178;115632;-72
2021/10/03 21:44:29;;;;;;;13.98;9.83;;;;;;;14.44;100.00;100390.77;713608;1205;114234;-71
2021/10/03 21:59:31;;;;;;;15.40;10.30;;;;;;;14.42;100.00;100390.91;713927;1177;113998;-71
2021/10/03 22:14:34;;;;;;;18.05;10.38;;;;;;;14.33;100.00;100373.38;714019;1200;115007;-71
2021/10/03 22:29:36;;;;;;;15.30;9.30;;;;;;;14.08;100.00;100382.97;713817;1178;114775;-71
2021/10/03 22:44:38;;;;;;;17.13;10.50;;;;;;;13.98;100.00;100381.27;714247;1177;114672;-70
2021/10/03 22:59:40;;;;;;;17.75;11.33;;;;;;;13.83;100.00;100379.35;714145;1204;114176;-71
2021/10/03 23:14:42;;;;;;;21.38;12.28;;;;;;;13.61;100.00;100384.14;714164;1202;114322;-71
2021/10/03 23:29:44;;;;;;;17.75;12.10;;;;;;;13.44;100.00;100388.45;714460;1202;115668;-70
2021/10/03 23:44:49;;;;;;;18.63;11.25;;;;;;;13.17;100.00;100369.08;713821;1202;115517;-70
2021/10/03 23:59:51;;;;;;;18.07;10.23;;;;;;;13.08;100.00;100373.44;714152;1202;114778;-71
